Amis Brave — 3FCV2 — position and weather

sailwx.info

Track history (hours):
 
Tides and Currents Weather Stations Pressure Air Temp Water Temp Dewpoint Dewpoint Depression Visibility Wind Speed Wind Dir Waves Ship Positions

Amis Brave

Last reported at 2017-Sep-21 13:50 UTC. Time now 2017-Oct-20 05:34 UTC.
Position N 37°25' E 025°55'.
Warning: this ship's position is 28 days out of date.

Length 200 m; draft 12.9 m.

Type: Cargo ship. MMSI: 355534000.

Date/timePositionNaut miles runAvg speedWind from/ knotsBaromVisibWave heightAir tempDewpointWater temp
2017-Sep-21 13:50N 37°25' E 025°55'410.8
2017-Sep-21 13:30N 37°28' E 025°54'611.2
2017-Sep-21 13:01N 37°34' E 025°52'611.2
2017-Sep-21 12:27N 37°40' E 025°51'262 9.6
2017-Sep-20 09:11N 41°14' E 029°08'1 5.7
2017-Sep-20 09:00N 41°15' E 029°07'2 4.5
2017-Sep-20 08:30N 41°17' E 029°05'2 1.0
2017-Sep-20 06:24N 41°17' E 029°02'27 3.3
2017-Sep-19 22:06N 41°31' E 029°34'312.8
2017-Sep-19 21:52N 41°32' E 029°37'612.7
2017-Sep-19 21:22N 41°35' E 029°45'512.6
2017-Sep-19 21:00N 41°37' E 029°50'612.7
2017-Sep-19 20:30N 41°40' E 029°58'712.9
2017-Sep-19 19:58N 41°43' E 030°06'913.1
2017-Sep-19 19:18N 41°47' E 030°16'1212.9
2017-Sep-19 18:22N 41°53' E 030°31'512.7
2017-Sep-19 18:00N 41°55' E 030°36'4313.0
2017-Sep-19 14:44N 42°14' E 031°27'312.8
2017-Sep-19 14:30N 42°16' E 031°31'29712.9
2017-Sep-18 15:28N 44°30' E 037°35'612.4
2017-Sep-18 15:00N 44°32' E 037°42'612.4
2017-Sep-18 14:30N 44°33' E 037°51'3 5.6
2017-Sep-18 13:58N 44°34' E 037°55'0 0.1
2017-Sep-18 13:22N 44°34' E 037°55'0 0.0
2017-Sep-18 12:58N 44°34' E 037°55'0 0.0
2017-Sep-18 12:28N 44°34' E 037°55'0 0.0
2017-Sep-18 11:58N 44°34' E 037°55'0 0.0
2017-Sep-18 11:28N 44°34' E 037°55'0 0.0
2017-Sep-18 10:58N 44°34' E 037°55'0 0.0
2017-Sep-18 10:28N 44°34' E 037°55'0 0.0
2017-Sep-18 09:58N 44°34' E 037°55'0 0.0
2017-Sep-18 09:28N 44°34' E 037°55'0 0.0
2017-Sep-18 08:55N 44°34' E 037°55'0 0.0
2017-Sep-18 08:07N 44°34' E 037°55'0 0.0
2017-Sep-18 07:58N 44°34' E 037°55'0 0.0
2017-Sep-18 07:28N 44°34' E 037°55'0 0.0
2017-Sep-18 06:58N 44°34' E 037°55'0 0.2
2017-Sep-18 06:30N 44°34' E 037°55'3 5.4
2017-Sep-18 06:00N 44°35' E 037°51'4 7.5
2017-Sep-18 05:30N 44°39' E 037°50'4 7.8
2017-Sep-18 05:00N 44°42' E 037°49'2 3.3
2017-Sep-18 04:30N 44°44' E 037°47'0 0.2
2017-Sep-18 04:00N 44°44' E 037°47'0 0.0
2017-Sep-18 03:28N 44°44' E 037°47'0 0.0
2017-Sep-18 02:58N 44°44' E 037°47'0 0.0
2017-Sep-18 02:25N 44°44' E 037°47'0 0.0
2017-Sep-18 01:58N 44°44' E 037°47'0 0.0
2017-Sep-18 01:28N 44°44' E 037°47'0 0.0
2017-Sep-18 00:58N 44°44' E 037°47'0 0.0
2017-Sep-18 00:28N 44°44' E 037°47'0 0.0
2017-Sep-17 23:58N 44°44' E 037°47'0 0.0
2017-Sep-17 23:28N 44°44' E 037°47'0 0.0
2017-Sep-17 22:58N 44°44' E 037°47'0 0.0
2017-Sep-17 22:28N 44°44' E 037°47'0 0.0
2017-Sep-17 21:58N 44°44' E 037°47'0 0.0
2017-Sep-17 21:28N 44°44' E 037°47'0 0.0
2017-Sep-17 20:58N 44°44' E 037°47'0 0.0
2017-Sep-17 20:28N 44°44' E 037°47'0 0.0
2017-Sep-17 19:58N 44°44' E 037°47'0 0.0
2017-Sep-17 19:28N 44°44' E 037°47'0 0.0
2017-Sep-17 18:58N 44°44' E 037°47'0 0.0
2017-Sep-17 18:28N 44°44' E 037°47'0 0.0
2017-Sep-17 17:58N 44°44' E 037°47'0 0.0
2017-Sep-17 17:28N 44°44' E 037°47'0 0.0
2017-Sep-17 16:58N 44°44' E 037°47'0 0.0
2017-Sep-17 16:28N 44°44' E 037°47'0 0.0
2017-Sep-17 15:58N 44°44' E 037°47'0 0.0
2017-Sep-17 15:25N 44°44' E 037°47'0 0.0
2017-Sep-17 14:58N 44°44' E 037°47'0 0.0
2017-Sep-17 14:28N 44°44' E 037°47'0 0.0
2017-Sep-17 13:58N 44°44' E 037°47'0 0.0
2017-Sep-17 13:28N 44°44' E 037°47'0 0.0
2017-Sep-17 12:58N 44°44' E 037°47'0 0.0
2017-Sep-17 12:25N 44°44' E 037°47'0 0.0
2017-Sep-17 11:58N 44°44' E 037°47'0 0.0
2017-Sep-17 11:28N 44°44' E 037°47'0 0.0
2017-Sep-17 10:58N 44°44' E 037°47'0 0.0
2017-Sep-17 10:28N 44°44' E 037°47'0 0.0
2017-Sep-17 09:58N 44°44' E 037°47'0 0.0
2017-Sep-17 09:28N 44°44' E 037°47'0 0.0
2017-Sep-17 08:58N 44°44' E 037°47'0 0.0
2017-Sep-17 08:28N 44°44' E 037°47'0 0.0
2017-Sep-17 07:58N 44°44' E 037°47'0 0.0
2017-Sep-17 07:28N 44°44' E 037°47'0 0.0
2017-Sep-17 06:58N 44°44' E 037°47'0 0.0
2017-Sep-17 06:28N 44°44' E 037°47'0 0.0
2017-Sep-17 05:58N 44°44' E 037°47'0 0.0
2017-Sep-17 05:28N 44°44' E 037°47'0 0.0
2017-Sep-17 04:58N 44°44' E 037°47'0 0.0
2017-Sep-17 04:28N 44°44' E 037°47'0 0.0
2017-Sep-17 03:58N 44°44' E 037°47'0 0.0
2017-Sep-17 03:28N 44°44' E 037°47'0 0.0
2017-Sep-17 02:58N 44°44' E 037°47'0 0.0
2017-Sep-17 02:28N 44°44' E 037°47'0 0.0
2017-Sep-17 01:58N 44°44' E 037°47'0 0.0
2017-Sep-17 01:28N 44°44' E 037°47'0 0.0
2017-Sep-17 00:58N 44°44' E 037°47'0 0.0
2017-Sep-17 00:28N 44°44' E 037°47'0 0.0
2017-Sep-16 23:58N 44°44' E 037°47'0 0.0
2017-Sep-16 23:28N 44°44' E 037°47'0 0.0
2017-Sep-16 22:58N 44°44' E 037°47'0 0.0
2017-Sep-16 22:28N 44°44' E 037°47'0 0.0
2017-Sep-16 21:58N 44°44' E 037°47'0 0.0
2017-Sep-16 21:28N 44°44' E 037°47'0 0.0
2017-Sep-16 20:58N 44°44' E 037°47'0 0.0
2017-Sep-16 20:28N 44°44' E 037°47'0 0.0
2017-Sep-16 19:31N 44°44' E 037°47'0 0.0
2017-Sep-16 19:28N 44°44' E 037°47'0 0.0
2017-Sep-16 18:58N 44°44' E 037°47'0 0.0
2017-Sep-16 18:28N 44°44' E 037°47'0 0.0
2017-Sep-16 17:58N 44°44' E 037°47'0 0.0
2017-Sep-16 17:28N 44°44' E 037°47'0 0.0
2017-Sep-16 16:58N 44°44' E 037°47'0 0.0
2017-Sep-16 16:28N 44°44' E 037°47'0 0.0
2017-Sep-16 15:58N 44°44' E 037°47'0 0.0
2017-Sep-16 15:28N 44°44' E 037°47'0 0.0
2017-Sep-16 14:58N 44°44' E 037°47'0 0.0
2017-Sep-16 14:28N 44°44' E 037°47'0 0.0
2017-Sep-16 13:58N 44°44' E 037°47'0 0.0
2017-Sep-16 13:28N 44°44' E 037°47'0 0.0
2017-Sep-16 12:58N 44°44' E 037°47'0 0.0
2017-Sep-16 12:28N 44°44' E 037°47'0 0.0
2017-Sep-16 11:58N 44°44' E 037°47'0 0.0
2017-Sep-16 11:28N 44°44' E 037°47'0 0.0
2017-Sep-16 10:58N 44°44' E 037°47'0 0.0
2017-Sep-16 10:28N 44°44' E 037°47'0 0.0
2017-Sep-16 09:58N 44°44' E 037°47'0 0.0
2017-Sep-16 07:58N 44°44' E 037°47'0 0.0
2017-Sep-16 07:28N 44°44' E 037°47'0 0.0
2017-Sep-16 06:58N 44°44' E 037°47'0 0.0
2017-Sep-16 06:28N 44°44' E 037°47'0 0.0
2017-Sep-16 05:58N 44°44' E 037°47'0 0.0
2017-Sep-16 05:28N 44°44' E 037°47'0 0.0
2017-Sep-16 04:58N 44°44' E 037°47'0 0.0
2017-Sep-16 04:28N 44°44' E 037°47'0 0.0
2017-Sep-16 03:55N 44°44' E 037°47'0 0.0
2017-Sep-16 03:28N 44°44' E 037°47'0 0.0
2017-Sep-16 02:58N 44°44' E 037°47'0 0.0
2017-Sep-16 02:28N 44°44' E 037°47'0 0.0
2017-Sep-16 01:58N 44°44' E 037°47'0 0.0
2017-Sep-16 01:28N 44°44' E 037°47'0 0.0
2017-Sep-16 01:00N 44°44' E 037°47'0 0.7
2017-Sep-16 00:30N 44°43' E 037°47'3 5.2
2017-Sep-16 00:00N 44°41' E 037°49'4 8.2
2017-Sep-15 23:30N 44°38' E 037°52'1 2.4
2017-Sep-15 23:00N 44°37' E 037°53'0 0.7
2017-Sep-15 22:30N 44°37' E 037°53'2 4.0
2017-Sep-15 22:01N 44°35' E 037°55'1 1.1
2017-Sep-15 21:19N 44°34' E 037°56'0 0.0
2017-Sep-15 20:58N 44°34' E 037°56'0 0.0
2017-Sep-15 20:28N 44°34' E 037°56'0 0.1
2017-Sep-15 19:58N 44°34' E 037°56'0 0.1
2017-Sep-15 19:28N 44°34' E 037°56'0 0.1
2017-Sep-15 18:58N 44°34' E 037°56'0 0.0
2017-Sep-15 18:28N 44°34' E 037°56'0 0.1
2017-Sep-15 17:43N 44°34' E 037°56'0 0.0
2017-Sep-15 17:25N 44°34' E 037°56'0 0.0
2017-Sep-15 16:58N 44°34' E 037°56'0 0.0
2017-Sep-15 16:28N 44°34' E 037°56'0 0.0
2017-Sep-15 15:58N 44°34' E 037°56'0 0.1
2017-Sep-15 15:07N 44°34' E 037°56'0 0.1
2017-Sep-15 14:58N 44°34' E 037°56'0 0.0
2017-Sep-15 14:28N 44°34' E 037°56'0 0.0
2017-Sep-15 13:58N 44°34' E 037°56'0 0.0
2017-Sep-15 13:28N 44°34' E 037°56'0 0.0
2017-Sep-15 12:58N 44°34' E 037°56'0 0.0
2017-Sep-15 12:28N 44°34' E 037°56'0 0.0
2017-Sep-15 11:58N 44°34' E 037°56'0 0.0
2017-Sep-15 11:28N 44°34' E 037°56'0 0.0
2017-Sep-15 10:58N 44°34' E 037°56'0 0.0
2017-Sep-15 10:28N 44°34' E 037°56'0 0.0
2017-Sep-15 09:58N 44°34' E 037°56'0 0.0
2017-Sep-15 09:28N 44°34' E 037°56'0 0.0
2017-Sep-15 08:58N 44°34' E 037°56'0 0.0
2017-Sep-15 08:28N 44°34' E 037°56'0 0.0
2017-Sep-15 07:58N 44°34' E 037°56'0 0.0
2017-Sep-15 07:28N 44°34' E 037°56'0 0.0
2017-Sep-15 06:58N 44°34' E 037°56'0 0.0
2017-Sep-15 06:28N 44°34' E 037°56'0 0.0
2017-Sep-15 05:58N 44°34' E 037°56'0 0.0
2017-Sep-15 05:28N 44°34' E 037°56'0 0.0
2017-Sep-15 04:58N 44°34' E 037°56'0 0.0
2017-Sep-15 04:28N 44°34' E 037°56'0 0.2
2017-Sep-15 03:58N 44°34' E 037°56'0 0.1
2017-Sep-15 03:28N 44°34' E 037°56'0 0.0
2017-Sep-15 02:58N 44°34' E 037°56'0 0.0
2017-Sep-15 02:28N 44°34' E 037°56'0 0.0
2017-Sep-15 01:58N 44°34' E 037°56'0 0.0
2017-Sep-15 01:28N 44°34' E 037°56'0 0.0
2017-Sep-15 00:58N 44°34' E 037°56'0 0.0
2017-Sep-15 00:28N 44°34' E 037°56'0 0.0
2017-Sep-14 23:58N 44°34' E 037°56'0 0.0
2017-Sep-14 23:28N 44°34' E 037°56'0 0.0
2017-Sep-14 22:58N 44°34' E 037°56'0 0.0
2017-Sep-14 22:28N 44°34' E 037°56'0 0.0
2017-Sep-14 21:58N 44°34' E 037°56'0 0.0
2017-Sep-14 21:28N 44°34' E 037°56'0 0.0
2017-Sep-14 20:58N 44°34' E 037°56'0 0.0
2017-Sep-14 20:28N 44°34' E 037°56'0 0.0
2017-Sep-14 19:58N 44°34' E 037°56'0 0.0
2017-Sep-14 19:28N 44°34' E 037°56'0 0.0
2017-Sep-14 18:58N 44°34' E 037°56'0 0.0
2017-Sep-14 18:28N 44°34' E 037°56'0 0.0
2017-Sep-14 17:58N 44°34' E 037°56'0 0.0
2017-Sep-14 17:25N 44°34' E 037°56'0 0.1
2017-Sep-14 16:58N 44°34' E 037°56'0 0.2
2017-Sep-14 16:28N 44°34' E 037°56'0 0.0
2017-Sep-14 15:58N 44°34' E 037°56'0 0.0
2017-Sep-14 15:28N 44°34' E 037°56'0 0.0
2017-Sep-14 14:58N 44°34' E 037°56'0 0.0
2017-Sep-14 14:28N 44°34' E 037°56'0 0.0
2017-Sep-14 13:58N 44°34' E 037°56'0 0.0
2017-Sep-14 13:28N 44°34' E 037°56'0 0.0
2017-Sep-14 12:58N 44°34' E 037°56'0 0.0
2017-Sep-14 12:10N 44°34' E 037°56'0 0.0
2017-Sep-14 11:58N 44°34' E 037°56'0 0.0
2017-Sep-14 11:28N 44°34' E 037°56'0 0.0
2017-Sep-14 10:52N 44°34' E 037°56'0 0.0
2017-Sep-14 10:28N 44°34' E 037°56'0 0.0
2017-Sep-14 09:58N 44°34' E 037°56'0 0.0
2017-Sep-14 09:28N 44°34' E 037°56'0 0.0
2017-Sep-14 08:58N 44°34' E 037°56'0 0.0
2017-Sep-14 08:28N 44°34' E 037°56'0 0.0
2017-Sep-14 07:58N 44°34' E 037°56'0 0.0
2017-Sep-14 07:28N 44°34' E 037°56'0 0.0
2017-Sep-14 06:58N 44°34' E 037°56'0 0.0
2017-Sep-14 06:28N 44°34' E 037°56'0 0.0
2017-Sep-14 05:58N 44°34' E 037°56'0 0.1
2017-Sep-14 05:28N 44°35' E 037°56'0 0.0
2017-Sep-14 04:58N 44°35' E 037°56'0 0.0
2017-Sep-14 04:28N 44°34' E 037°56'0 0.0
2017-Sep-14 03:58N 44°35' E 037°56'0 0.1
2017-Sep-14 03:25N 44°34' E 037°56'0 0.0
2017-Sep-14 02:58N 44°34' E 037°56'0 0.0
2017-Sep-14 02:25N 44°34' E 037°56'0 0.1
2017-Sep-14 01:58N 44°34' E 037°56'0 0.0
2017-Sep-14 01:28N 44°34' E 037°56'0 0.1
2017-Sep-14 00:58N 44°35' E 037°56'0 0.1
2017-Sep-14 00:28N 44°35' E 037°56'0 0.0
2017-Sep-13 23:58N 44°35' E 037°56'0 0.1
2017-Sep-13 23:28N 44°35' E 037°56'0 0.0
2017-Sep-13 22:58N 44°35' E 037°56'0 0.0
2017-Sep-13 22:28N 44°35' E 037°56'0 0.2
2017-Sep-13 21:58N 44°35' E 037°56'0 0.0
2017-Sep-13 21:28N 44°35' E 037°56'0 0.1
2017-Sep-13 20:55N 44°35' E 037°56'0 0.1
2017-Sep-13 20:28N 44°35' E 037°56'0 0.1
2017-Sep-13 19:58N 44°35' E 037°56'0 0.0
2017-Sep-13 19:28N 44°35' E 037°56'0 0.1
2017-Sep-13 18:55N 44°35' E 037°56'0 0.0
2017-Sep-13 18:31N 44°35' E 037°56'0 0.1
2017-Sep-13 17:58N 44°35' E 037°56'0 0.0
2017-Sep-13 17:25N 44°35' E 037°56'0 0.0
2017-Sep-13 17:01N 44°35' E 037°56'0 0.0
2017-Sep-13 16:28N 44°35' E 037°56'0 0.0
2017-Sep-13 15:58N 44°35' E 037°56'0 0.0
2017-Sep-13 15:30N 44°35' E 037°56'0 0.0
2017-Sep-13 15:00N 44°35' E 037°56'0 0.0
2017-Sep-13 14:30N 44°35' E 037°56'0 0.0
2017-Sep-13 14:01N 44°35' E 037°56'0 0.0
2017-Sep-13 13:30N 44°35' E 037°56'0 0.0
2017-Sep-13 13:00N 44°35' E 037°56'0 0.0
2017-Sep-13 12:30N 44°35' E 037°56'0 0.0
2017-Sep-13 11:58N 44°35' E 037°56'0 0.0
2017-Sep-13 11:30N 44°35' E 037°56'0 0.0
2017-Sep-13 11:01N 44°35' E 037°56'0 0.0
2017-Sep-13 10:28N 44°35' E 037°56'0 0.0
2017-Sep-13 09:57N 44°35' E 037°56'0 0.0
2017-Sep-13 09:28N 44°35' E 037°56'0 0.1
2017-Sep-13 09:00N 44°35' E 037°56'0 0.0
2017-Sep-13 08:31N 44°35' E 037°56'0 0.1
2017-Sep-13 08:00N 44°35' E 037°56'0 0.0
2017-Sep-13 07:30N 44°35' E 037°56'0 0.1
2017-Sep-13 06:57N 44°35' E 037°56'0 0.1
2017-Sep-13 06:30N 44°35' E 037°56'0 0.1
2017-Sep-13 06:01N 44°35' E 037°56'0 0.1
2017-Sep-13 05:30N 44°35' E 037°56'0 0.0
2017-Sep-13 05:01N 44°35' E 037°56'0 0.0
2017-Sep-13 04:31N 44°35' E 037°56'0 0.0
2017-Sep-13 04:00N 44°35' E 037°56'0 0.1
2017-Sep-13 03:30N 44°35' E 037°56'0 0.0
2017-Sep-13 03:00N 44°35' E 037°56'0 0.1
2017-Sep-13 02:30N 44°35' E 037°56'0 0.0
2017-Sep-13 02:00N 44°35' E 037°56'0 0.0
2017-Sep-13 01:30N 44°35' E 037°56'0 0.0
2017-Sep-13 01:01N 44°35' E 037°56'0 0.1
2017-Sep-13 00:30N 44°35' E 037°56'0 0.0
2017-Sep-12 23:55N 44°35' E 037°56'0 0.0
2017-Sep-12 23:30N 44°35' E 037°56'0 0.0
2017-Sep-12 23:01N 44°35' E 037°56'0 0.0
2017-Sep-12 22:27N 44°35' E 037°56'0 0.0
2017-Sep-12 22:00N 44°35' E 037°56'0 0.1
2017-Sep-12 21:30N 44°35' E 037°56'0 0.1
2017-Sep-12 21:00N 44°35' E 037°56'0 0.1
2017-Sep-12 19:54N 44°35' E 037°56'0 0.1
2017-Sep-12 19:28N 44°35' E 037°56'0 0.1
2017-Sep-12 19:00N 44°35' E 037°56'0 0.0
2017-Sep-12 18:30N 44°35' E 037°56'0 0.0
2017-Sep-12 18:00N 44°35' E 037°56'0 0.1
2017-Sep-12 17:30N 44°35' E 037°56'0 0.1
2017-Sep-12 17:00N 44°35' E 037°56'0 0.0
2017-Sep-12 16:30N 44°35' E 037°56'0 0.0
2017-Sep-12 16:00N 44°35' E 037°56'0 0.0
2017-Sep-12 15:30N 44°35' E 037°56'0 0.0
2017-Sep-12 15:00N 44°35' E 037°56'0 0.0
2017-Sep-12 14:30N 44°35' E 037°56'0 0.0
2017-Sep-12 14:00N 44°35' E 037°56'0 0.0
2017-Sep-12 13:30N 44°35' E 037°56'0 0.0
2017-Sep-12 13:00N 44°35' E 037°56'0 0.0
2017-Sep-12 12:30N 44°35' E 037°56'0 0.0
2017-Sep-12 12:00N 44°35' E 037°56'0 0.0
2017-Sep-12 11:30N 44°35' E 037°56'0 0.0
2017-Sep-12 11:00N 44°35' E 037°56'0 0.0
2017-Sep-12 10:30N 44°35' E 037°56'0 0.0
2017-Sep-12 10:00N 44°35' E 037°56'0 0.0
2017-Sep-12 09:27N 44°35' E 037°56'0 0.0
2017-Sep-12 09:00N 44°35' E 037°56'0 0.0
2017-Sep-12 08:30N 44°35' E 037°56'0 0.0
2017-Sep-12 08:00N 44°35' E 037°56'0 0.0
2017-Sep-12 07:30N 44°35' E 037°56'0 0.0
2017-Sep-12 07:00N 44°35' E 037°56'0 0.0
2017-Sep-12 06:30N 44°35' E 037°56'0 0.0
2017-Sep-12 05:57N 44°35' E 037°56'0 0.0
2017-Sep-12 05:30N 44°35' E 037°56'0 0.0
2017-Sep-12 05:00N 44°35' E 037°56'0 0.1
2017-Sep-12 04:30N 44°35' E 037°56'0 0.1
2017-Sep-12 04:00N 44°35' E 037°56'0 0.0
2017-Sep-12 03:30N 44°35' E 037°56'0 0.0
2017-Sep-12 03:00N 44°35' E 037°56'0 0.1
2017-Sep-12 02:30N 44°35' E 037°56'0 0.0
2017-Sep-12 02:00N 44°35' E 037°56'0 0.0
2017-Sep-12 01:30N 44°35' E 037°56'0 0.1
2017-Sep-12 01:00N 44°35' E 037°56'0 0.0
2017-Sep-12 00:30N 44°35' E 037°56'0 0.1
2017-Sep-12 00:00N 44°35' E 037°56'0 0.1
2017-Sep-11 23:30N 44°35' E 037°56'0 0.0
2017-Sep-11 23:00N 44°35' E 037°56'0 0.0
2017-Sep-11 22:30N 44°35' E 037°56'0 0.1
2017-Sep-11 22:00N 44°35' E 037°56'0 0.1
2017-Sep-11 21:30N 44°34' E 037°56'0 0.0
2017-Sep-11 21:00N 44°34' E 037°56'0 0.0
2017-Sep-11 20:30N 44°34' E 037°56'0 0.0
2017-Sep-11 20:00N 44°34' E 037°56'0 0.0
2017-Sep-11 19:30N 44°34' E 037°56'0 0.1
2017-Sep-11 19:00N 44°34' E 037°56'0 0.1
2017-Sep-11 18:30N 44°34' E 037°56'0 0.0
2017-Sep-11 18:00N 44°34' E 037°56'0 0.0
2017-Sep-11 17:27N 44°34' E 037°56'0 0.0
2017-Sep-11 16:54N 44°34' E 037°56'0 0.1
2017-Sep-11 16:30N 44°34' E 037°56'0 0.0
2017-Sep-11 16:00N 44°34' E 037°56'0 0.0
2017-Sep-11 15:30N 44°34' E 037°56'0 0.0
2017-Sep-11 15:00N 44°34' E 037°56'0 0.0
2017-Sep-11 14:30N 44°34' E 037°56'0 0.0
2017-Sep-11 14:00N 44°34' E 037°56'  
Track history (hours):
 
Tides and Currents Weather Stations Pressure Air Temp Water Temp Dewpoint Dewpoint Depression Visibility Wind Speed Wind Dir Waves Ship Positions

Amis Brave

Last reported at 2017-Sep-21 13:50 UTC. Time now 2017-Oct-20 05:34 UTC.
Position N 37°25' E 025°55'.
Warning: this ship's position is 28 days out of date.

Length 200 m; draft 12.9 m.

Type: Cargo ship. MMSI: 355534000.

Date/timePositionNaut miles runAvg speedWind from/ knotsBaromVisibWave heightAir tempDewpointWater temp
2017-Sep-21 13:50N 37°25' E 025°55'410.8
2017-Sep-21 13:30N 37°28' E 025°54'611.2
2017-Sep-21 13:01N 37°34' E 025°52'611.2
2017-Sep-21 12:27N 37°40' E 025°51'262 9.6
2017-Sep-20 09:11N 41°14' E 029°08'1 5.7
2017-Sep-20 09:00N 41°15' E 029°07'2 4.5
2017-Sep-20 08:30N 41°17' E 029°05'2 1.0
2017-Sep-20 06:24N 41°17' E 029°02'27 3.3
2017-Sep-19 22:06N 41°31' E 029°34'312.8
2017-Sep-19 21:52N 41°32' E 029°37'612.7
2017-Sep-19 21:22N 41°35' E 029°45'512.6
2017-Sep-19 21:00N 41°37' E 029°50'612.7
2017-Sep-19 20:30N 41°40' E 029°58'712.9
2017-Sep-19 19:58N 41°43' E 030°06'913.1
2017-Sep-19 19:18N 41°47' E 030°16'1212.9
2017-Sep-19 18:22N 41°53' E 030°31'512.7
2017-Sep-19 18:00N 41°55' E 030°36'4313.0
2017-Sep-19 14:44N 42°14' E 031°27'312.8
2017-Sep-19 14:30N 42°16' E 031°31'29712.9
2017-Sep-18 15:28N 44°30' E 037°35'612.4
2017-Sep-18 15:00N 44°32' E 037°42'612.4
2017-Sep-18 14:30N 44°33' E 037°51'3 5.6
2017-Sep-18 13:58N 44°34' E 037°55'0 0.1
2017-Sep-18 13:22N 44°34' E 037°55'0 0.0
2017-Sep-18 12:58N 44°34' E 037°55'0 0.0
2017-Sep-18 12:28N 44°34' E 037°55'0 0.0
2017-Sep-18 11:58N 44°34' E 037°55'0 0.0
2017-Sep-18 11:28N 44°34' E 037°55'0 0.0
2017-Sep-18 10:58N 44°34' E 037°55'0 0.0
2017-Sep-18 10:28N 44°34' E 037°55'0 0.0
2017-Sep-18 09:58N 44°34' E 037°55'0 0.0
2017-Sep-18 09:28N 44°34' E 037°55'0 0.0
2017-Sep-18 08:55N 44°34' E 037°55'0 0.0
2017-Sep-18 08:07N 44°34' E 037°55'0 0.0
2017-Sep-18 07:58N 44°34' E 037°55'0 0.0
2017-Sep-18 07:28N 44°34' E 037°55'0 0.0
2017-Sep-18 06:58N 44°34' E 037°55'0 0.2
2017-Sep-18 06:30N 44°34' E 037°55'3 5.4
2017-Sep-18 06:00N 44°35' E 037°51'4 7.5
2017-Sep-18 05:30N 44°39' E 037°50'4 7.8
2017-Sep-18 05:00N 44°42' E 037°49'2 3.3
2017-Sep-18 04:30N 44°44' E 037°47'0 0.2
2017-Sep-18 04:00N 44°44' E 037°47'0 0.0
2017-Sep-18 03:28N 44°44' E 037°47'0 0.0
2017-Sep-18 02:58N 44°44' E 037°47'0 0.0
2017-Sep-18 02:25N 44°44' E 037°47'0 0.0
2017-Sep-18 01:58N 44°44' E 037°47'0 0.0
2017-Sep-18 01:28N 44°44' E 037°47'0 0.0
2017-Sep-18 00:58N 44°44' E 037°47'0 0.0
2017-Sep-18 00:28N 44°44' E 037°47'0 0.0
2017-Sep-17 23:58N 44°44' E 037°47'0 0.0
2017-Sep-17 23:28N 44°44' E 037°47'0 0.0
2017-Sep-17 22:58N 44°44' E 037°47'0 0.0
2017-Sep-17 22:28N 44°44' E 037°47'0 0.0
2017-Sep-17 21:58N 44°44' E 037°47'0 0.0
2017-Sep-17 21:28N 44°44' E 037°47'0 0.0
2017-Sep-17 20:58N 44°44' E 037°47'0 0.0
2017-Sep-17 20:28N 44°44' E 037°47'0 0.0
2017-Sep-17 19:58N 44°44' E 037°47'0 0.0
2017-Sep-17 19:28N 44°44' E 037°47'0 0.0
2017-Sep-17 18:58N 44°44' E 037°47'0 0.0
2017-Sep-17 18:28N 44°44' E 037°47'0 0.0
2017-Sep-17 17:58N 44°44' E 037°47'0 0.0
2017-Sep-17 17:28N 44°44' E 037°47'0 0.0
2017-Sep-17 16:58N 44°44' E 037°47'0 0.0
2017-Sep-17 16:28N 44°44' E 037°47'0 0.0
2017-Sep-17 15:58N 44°44' E 037°47'0 0.0
2017-Sep-17 15:25N 44°44' E 037°47'0 0.0
2017-Sep-17 14:58N 44°44' E 037°47'0 0.0
2017-Sep-17 14:28N 44°44' E 037°47'0 0.0
2017-Sep-17 13:58N 44°44' E 037°47'0 0.0
2017-Sep-17 13:28N 44°44' E 037°47'0 0.0
2017-Sep-17 12:58N 44°44' E 037°47'0 0.0
2017-Sep-17 12:25N 44°44' E 037°47'0 0.0
2017-Sep-17 11:58N 44°44' E 037°47'0 0.0
2017-Sep-17 11:28N 44°44' E 037°47'0 0.0
2017-Sep-17 10:58N 44°44' E 037°47'0 0.0
2017-Sep-17 10:28N 44°44' E 037°47'0 0.0
2017-Sep-17 09:58N 44°44' E 037°47'0 0.0
2017-Sep-17 09:28N 44°44' E 037°47'0 0.0
2017-Sep-17 08:58N 44°44' E 037°47'0 0.0
2017-Sep-17 08:28N 44°44' E 037°47'0 0.0
2017-Sep-17 07:58N 44°44' E 037°47'0 0.0
2017-Sep-17 07:28N 44°44' E 037°47'0 0.0
2017-Sep-17 06:58N 44°44' E 037°47'0 0.0
2017-Sep-17 06:28N 44°44' E 037°47'0 0.0
2017-Sep-17 05:58N 44°44' E 037°47'0 0.0
2017-Sep-17 05:28N 44°44' E 037°47'0 0.0
2017-Sep-17 04:58N 44°44' E 037°47'0 0.0
2017-Sep-17 04:28N 44°44' E 037°47'0 0.0
2017-Sep-17 03:58N 44°44' E 037°47'0 0.0
2017-Sep-17 03:28N 44°44' E 037°47'0 0.0
2017-Sep-17 02:58N 44°44' E 037°47'0 0.0
2017-Sep-17 02:28N 44°44' E 037°47'0 0.0
2017-Sep-17 01:58N 44°44' E 037°47'0 0.0
2017-Sep-17 01:28N 44°44' E 037°47'0 0.0
2017-Sep-17 00:58N 44°44' E 037°47'0 0.0
2017-Sep-17 00:28N 44°44' E 037°47'0 0.0
2017-Sep-16 23:58N 44°44' E 037°47'0 0.0
2017-Sep-16 23:28N 44°44' E 037°47'0 0.0
2017-Sep-16 22:58N 44°44' E 037°47'0 0.0
2017-Sep-16 22:28N 44°44' E 037°47'0 0.0
2017-Sep-16 21:58N 44°44' E 037°47'0 0.0
2017-Sep-16 21:28N 44°44' E 037°47'0 0.0
2017-Sep-16 20:58N 44°44' E 037°47'0 0.0
2017-Sep-16 20:28N 44°44' E 037°47'0 0.0
2017-Sep-16 19:31N 44°44' E 037°47'0 0.0
2017-Sep-16 19:28N 44°44' E 037°47'0 0.0
2017-Sep-16 18:58N 44°44' E 037°47'0 0.0
2017-Sep-16 18:28N 44°44' E 037°47'0 0.0
2017-Sep-16 17:58N 44°44' E 037°47'0 0.0
2017-Sep-16 17:28N 44°44' E 037°47'0 0.0
2017-Sep-16 16:58N 44°44' E 037°47'0 0.0
2017-Sep-16 16:28N 44°44' E 037°47'0 0.0
2017-Sep-16 15:58N 44°44' E 037°47'0 0.0
2017-Sep-16 15:28N 44°44' E 037°47'0 0.0
2017-Sep-16 14:58N 44°44' E 037°47'0 0.0
2017-Sep-16 14:28N 44°44' E 037°47'0 0.0
2017-Sep-16 13:58N 44°44' E 037°47'0 0.0
2017-Sep-16 13:28N 44°44' E 037°47'0 0.0
2017-Sep-16 12:58N 44°44' E 037°47'0 0.0
2017-Sep-16 12:28N 44°44' E 037°47'0 0.0
2017-Sep-16 11:58N 44°44' E 037°47'0 0.0
2017-Sep-16 11:28N 44°44' E 037°47'0 0.0
2017-Sep-16 10:58N 44°44' E 037°47'0 0.0
2017-Sep-16 10:28N 44°44' E 037°47'0 0.0
2017-Sep-16 09:58N 44°44' E 037°47'0 0.0
2017-Sep-16 07:58N 44°44' E 037°47'0 0.0
2017-Sep-16 07:28N 44°44' E 037°47'0 0.0
2017-Sep-16 06:58N 44°44' E 037°47'0 0.0
2017-Sep-16 06:28N 44°44' E 037°47'0 0.0
2017-Sep-16 05:58N 44°44' E 037°47'0 0.0
2017-Sep-16 05:28N 44°44' E 037°47'0 0.0
2017-Sep-16 04:58N 44°44' E 037°47'0 0.0
2017-Sep-16 04:28N 44°44' E 037°47'0 0.0
2017-Sep-16 03:55N 44°44' E 037°47'0 0.0
2017-Sep-16 03:28N 44°44' E 037°47'0 0.0
2017-Sep-16 02:58N 44°44' E 037°47'0 0.0
2017-Sep-16 02:28N 44°44' E 037°47'0 0.0
2017-Sep-16 01:58N 44°44' E 037°47'0 0.0
2017-Sep-16 01:28N 44°44' E 037°47'0 0.0
2017-Sep-16 01:00N 44°44' E 037°47'0 0.7
2017-Sep-16 00:30N 44°43' E 037°47'3 5.2
2017-Sep-16 00:00N 44°41' E 037°49'4 8.2
2017-Sep-15 23:30N 44°38' E 037°52'1 2.4
2017-Sep-15 23:00N 44°37' E 037°53'0 0.7
2017-Sep-15 22:30N 44°37' E 037°53'2 4.0
2017-Sep-15 22:01N 44°35' E 037°55'1 1.1
2017-Sep-15 21:19N 44°34' E 037°56'0 0.0
2017-Sep-15 20:58N 44°34' E 037°56'0 0.0
2017-Sep-15 20:28N 44°34' E 037°56'0 0.1
2017-Sep-15 19:58N 44°34' E 037°56'0 0.1
2017-Sep-15 19:28N 44°34' E 037°56'0 0.1
2017-Sep-15 18:58N 44°34' E 037°56'0 0.0
2017-Sep-15 18:28N 44°34' E 037°56'0 0.1
2017-Sep-15 17:43N 44°34' E 037°56'0 0.0
2017-Sep-15 17:25N 44°34' E 037°56'0 0.0
2017-Sep-15 16:58N 44°34' E 037°56'0 0.0
2017-Sep-15 16:28N 44°34' E 037°56'0 0.0
2017-Sep-15 15:58N 44°34' E 037°56'0 0.1
2017-Sep-15 15:07N 44°34' E 037°56'0 0.1
2017-Sep-15 14:58N 44°34' E 037°56'0 0.0
2017-Sep-15 14:28N 44°34' E 037°56'0 0.0
2017-Sep-15 13:58N 44°34' E 037°56'0 0.0
2017-Sep-15 13:28N 44°34' E 037°56'0 0.0
2017-Sep-15 12:58N 44°34' E 037°56'0 0.0
2017-Sep-15 12:28N 44°34' E 037°56'0 0.0
2017-Sep-15 11:58N 44°34' E 037°56'0 0.0
2017-Sep-15 11:28N 44°34' E 037°56'0 0.0
2017-Sep-15 10:58N 44°34' E 037°56'0 0.0
2017-Sep-15 10:28N 44°34' E 037°56'0 0.0
2017-Sep-15 09:58N 44°34' E 037°56'0 0.0
2017-Sep-15 09:28N 44°34' E 037°56'0 0.0
2017-Sep-15 08:58N 44°34' E 037°56'0 0.0
2017-Sep-15 08:28N 44°34' E 037°56'0 0.0
2017-Sep-15 07:58N 44°34' E 037°56'0 0.0
2017-Sep-15 07:28N 44°34' E 037°56'0 0.0
2017-Sep-15 06:58N 44°34' E 037°56'0 0.0
2017-Sep-15 06:28N 44°34' E 037°56'0 0.0
2017-Sep-15 05:58N 44°34' E 037°56'0 0.0
2017-Sep-15 05:28N 44°34' E 037°56'0 0.0
2017-Sep-15 04:58N 44°34' E 037°56'0 0.0
2017-Sep-15 04:28N 44°34' E 037°56'0 0.2
2017-Sep-15 03:58N 44°34' E 037°56'0 0.1
2017-Sep-15 03:28N 44°34' E 037°56'0 0.0
2017-Sep-15 02:58N 44°34' E 037°56'0 0.0
2017-Sep-15 02:28N 44°34' E 037°56'0 0.0
2017-Sep-15 01:58N 44°34' E 037°56'0 0.0
2017-Sep-15 01:28N 44°34' E 037°56'0 0.0
2017-Sep-15 00:58N 44°34' E 037°56'0 0.0
2017-Sep-15 00:28N 44°34' E 037°56'0 0.0
2017-Sep-14 23:58N 44°34' E 037°56'0 0.0
2017-Sep-14 23:28N 44°34' E 037°56'0 0.0
2017-Sep-14 22:58N 44°34' E 037°56'0 0.0
2017-Sep-14 22:28N 44°34' E 037°56'0 0.0
2017-Sep-14 21:58N 44°34' E 037°56'0 0.0
2017-Sep-14 21:28N 44°34' E 037°56'0 0.0
2017-Sep-14 20:58N 44°34' E 037°56'0 0.0
2017-Sep-14 20:28N 44°34' E 037°56'0 0.0
2017-Sep-14 19:58N 44°34' E 037°56'0 0.0
2017-Sep-14 19:28N 44°34' E 037°56'0 0.0
2017-Sep-14 18:58N 44°34' E 037°56'0 0.0
2017-Sep-14 18:28N 44°34' E 037°56'0 0.0
2017-Sep-14 17:58N 44°34' E 037°56'0 0.0
2017-Sep-14 17:25N 44°34' E 037°56'0 0.1
2017-Sep-14 16:58N 44°34' E 037°56'0 0.2
2017-Sep-14 16:28N 44°34' E 037°56'0 0.0
2017-Sep-14 15:58N 44°34' E 037°56'0 0.0
2017-Sep-14 15:28N 44°34' E 037°56'0 0.0
2017-Sep-14 14:58N 44°34' E 037°56'0 0.0
2017-Sep-14 14:28N 44°34' E 037°56'0 0.0
2017-Sep-14 13:58N 44°34' E 037°56'0 0.0
2017-Sep-14 13:28N 44°34' E 037°56'0 0.0
2017-Sep-14 12:58N 44°34' E 037°56'0 0.0
2017-Sep-14 12:10N 44°34' E 037°56'0 0.0
2017-Sep-14 11:58N 44°34' E 037°56'0 0.0
2017-Sep-14 11:28N 44°34' E 037°56'0 0.0
2017-Sep-14 10:52N 44°34' E 037°56'0 0.0
2017-Sep-14 10:28N 44°34' E 037°56'0 0.0
2017-Sep-14 09:58N 44°34' E 037°56'0 0.0
2017-Sep-14 09:28N 44°34' E 037°56'0 0.0
2017-Sep-14 08:58N 44°34' E 037°56'0 0.0
2017-Sep-14 08:28N 44°34' E 037°56'0 0.0
2017-Sep-14 07:58N 44°34' E 037°56'0 0.0
2017-Sep-14 07:28N 44°34' E 037°56'0 0.0
2017-Sep-14 06:58N 44°34' E 037°56'0 0.0
2017-Sep-14 06:28N 44°34' E 037°56'0 0.0
2017-Sep-14 05:58N 44°34' E 037°56'0 0.1
2017-Sep-14 05:28N 44°35' E 037°56'0 0.0
2017-Sep-14 04:58N 44°35' E 037°56'0 0.0
2017-Sep-14 04:28N 44°34' E 037°56'0 0.0
2017-Sep-14 03:58N 44°35' E 037°56'0 0.1
2017-Sep-14 03:25N 44°34' E 037°56'0 0.0
2017-Sep-14 02:58N 44°34' E 037°56'0 0.0
2017-Sep-14 02:25N 44°34' E 037°56'0 0.1
2017-Sep-14 01:58N 44°34' E 037°56'0 0.0
2017-Sep-14 01:28N 44°34' E 037°56'0 0.1
2017-Sep-14 00:58N 44°35' E 037°56'0 0.1
2017-Sep-14 00:28N 44°35' E 037°56'0 0.0
2017-Sep-13 23:58N 44°35' E 037°56'0 0.1
2017-Sep-13 23:28N 44°35' E 037°56'0 0.0
2017-Sep-13 22:58N 44°35' E 037°56'0 0.0
2017-Sep-13 22:28N 44°35' E 037°56'0 0.2
2017-Sep-13 21:58N 44°35' E 037°56'0 0.0
2017-Sep-13 21:28N 44°35' E 037°56'0 0.1
2017-Sep-13 20:55N 44°35' E 037°56'0 0.1
2017-Sep-13 20:28N 44°35' E 037°56'0 0.1
2017-Sep-13 19:58N 44°35' E 037°56'0 0.0
2017-Sep-13 19:28N 44°35' E 037°56'0 0.1
2017-Sep-13 18:55N 44°35' E 037°56'0 0.0
2017-Sep-13 18:31N 44°35' E 037°56'0 0.1
2017-Sep-13 17:58N 44°35' E 037°56'0 0.0
2017-Sep-13 17:25N 44°35' E 037°56'0 0.0
2017-Sep-13 17:01N 44°35' E 037°56'0 0.0
2017-Sep-13 16:28N 44°35' E 037°56'0 0.0
2017-Sep-13 15:58N 44°35' E 037°56'0 0.0
2017-Sep-13 15:30N 44°35' E 037°56'0 0.0
2017-Sep-13 15:00N 44°35' E 037°56'0 0.0
2017-Sep-13 14:30N 44°35' E 037°56'0 0.0
2017-Sep-13 14:01N 44°35' E 037°56'0 0.0
2017-Sep-13 13:30N 44°35' E 037°56'0 0.0
2017-Sep-13 13:00N 44°35' E 037°56'0 0.0
2017-Sep-13 12:30N 44°35' E 037°56'0 0.0
2017-Sep-13 11:58N 44°35' E 037°56'0 0.0
2017-Sep-13 11:30N 44°35' E 037°56'0 0.0
2017-Sep-13 11:01N 44°35' E 037°56'0 0.0
2017-Sep-13 10:28N 44°35' E 037°56'0 0.0
2017-Sep-13 09:57N 44°35' E 037°56'0 0.0
2017-Sep-13 09:28N 44°35' E 037°56'0 0.1
2017-Sep-13 09:00N 44°35' E 037°56'0 0.0
2017-Sep-13 08:31N 44°35' E 037°56'0 0.1
2017-Sep-13 08:00N 44°35' E 037°56'0 0.0
2017-Sep-13 07:30N 44°35' E 037°56'0 0.1
2017-Sep-13 06:57N 44°35' E 037°56'0 0.1
2017-Sep-13 06:30N 44°35' E 037°56'0 0.1
2017-Sep-13 06:01N 44°35' E 037°56'0 0.1
2017-Sep-13 05:30N 44°35' E 037°56'0 0.0
2017-Sep-13 05:01N 44°35' E 037°56'0 0.0
2017-Sep-13 04:31N 44°35' E 037°56'0 0.0
2017-Sep-13 04:00N 44°35' E 037°56'0 0.1
2017-Sep-13 03:30N 44°35' E 037°56'0 0.0
2017-Sep-13 03:00N 44°35' E 037°56'0 0.1
2017-Sep-13 02:30N 44°35' E 037°56'0 0.0
2017-Sep-13 02:00N 44°35' E 037°56'0 0.0
2017-Sep-13 01:30N 44°35' E 037°56'0 0.0
2017-Sep-13 01:01N 44°35' E 037°56'0 0.1
2017-Sep-13 00:30N 44°35' E 037°56'0 0.0
2017-Sep-12 23:55N 44°35' E 037°56'0 0.0
2017-Sep-12 23:30N 44°35' E 037°56'0 0.0
2017-Sep-12 23:01N 44°35' E 037°56'0 0.0
2017-Sep-12 22:27N 44°35' E 037°56'0 0.0
2017-Sep-12 22:00N 44°35' E 037°56'0 0.1
2017-Sep-12 21:30N 44°35' E 037°56'0 0.1
2017-Sep-12 21:00N 44°35' E 037°56'0 0.1
2017-Sep-12 19:54N 44°35' E 037°56'0 0.1
2017-Sep-12 19:28N 44°35' E 037°56'0 0.1
2017-Sep-12 19:00N 44°35' E 037°56'0 0.0
2017-Sep-12 18:30N 44°35' E 037°56'0 0.0
2017-Sep-12 18:00N 44°35' E 037°56'0 0.1
2017-Sep-12 17:30N 44°35' E 037°56'0 0.1
2017-Sep-12 17:00N 44°35' E 037°56'0 0.0
2017-Sep-12 16:30N 44°35' E 037°56'0 0.0
2017-Sep-12 16:00N 44°35' E 037°56'0 0.0
2017-Sep-12 15:30N 44°35' E 037°56'0 0.0
2017-Sep-12 15:00N 44°35' E 037°56'0 0.0
2017-Sep-12 14:30N 44°35' E 037°56'0 0.0
2017-Sep-12 14:00N 44°35' E 037°56'0 0.0
2017-Sep-12 13:30N 44°35' E 037°56'0 0.0
2017-Sep-12 13:00N 44°35' E 037°56'0 0.0
2017-Sep-12 12:30N 44°35' E 037°56'0 0.0
2017-Sep-12 12:00N 44°35' E 037°56'0 0.0
2017-Sep-12 11:30N 44°35' E 037°56'0 0.0
2017-Sep-12 11:00N 44°35' E 037°56'0 0.0
2017-Sep-12 10:30N 44°35' E 037°56'0 0.0
2017-Sep-12 10:00N 44°35' E 037°56'0 0.0
2017-Sep-12 09:27N 44°35' E 037°56'0 0.0
2017-Sep-12 09:00N 44°35' E 037°56'0 0.0
2017-Sep-12 08:30N 44°35' E 037°56'0 0.0
2017-Sep-12 08:00N 44°35' E 037°56'0 0.0
2017-Sep-12 07:30N 44°35' E 037°56'0 0.0
2017-Sep-12 07:00N 44°35' E 037°56'0 0.0
2017-Sep-12 06:30N 44°35' E 037°56'0 0.0
2017-Sep-12 05:57N 44°35' E 037°56'0 0.0
2017-Sep-12 05:30N 44°35' E 037°56'0 0.0
2017-Sep-12 05:00N 44°35' E 037°56'0 0.1
2017-Sep-12 04:30N 44°35' E 037°56'0 0.1
2017-Sep-12 04:00N 44°35' E 037°56'0 0.0
2017-Sep-12 03:30N 44°35' E 037°56'0 0.0
2017-Sep-12 03:00N 44°35' E 037°56'0 0.1
2017-Sep-12 02:30N 44°35' E 037°56'0 0.0
2017-Sep-12 02:00N 44°35' E 037°56'0 0.0
2017-Sep-12 01:30N 44°35' E 037°56'0 0.1
2017-Sep-12 01:00N 44°35' E 037°56'0 0.0
2017-Sep-12 00:30N 44°35' E 037°56'0 0.1
2017-Sep-12 00:00N 44°35' E 037°56'0 0.1
2017-Sep-11 23:30N 44°35' E 037°56'0 0.0
2017-Sep-11 23:00N 44°35' E 037°56'0 0.0
2017-Sep-11 22:30N 44°35' E 037°56'0 0.1
2017-Sep-11 22:00N 44°35' E 037°56'0 0.1
2017-Sep-11 21:30N 44°34' E 037°56'0 0.0
2017-Sep-11 21:00N 44°34' E 037°56'0 0.0
2017-Sep-11 20:30N 44°34' E 037°56'0 0.0
2017-Sep-11 20:00N 44°34' E 037°56'0 0.0
2017-Sep-11 19:30N 44°34' E 037°56'0 0.1
2017-Sep-11 19:00N 44°34' E 037°56'0 0.1
2017-Sep-11 18:30N 44°34' E 037°56'0 0.0
2017-Sep-11 18:00N 44°34' E 037°56'0 0.0
2017-Sep-11 17:27N 44°34' E 037°56'0 0.0
2017-Sep-11 16:54N 44°34' E 037°56'0 0.1
2017-Sep-11 16:30N 44°34' E 037°56'0 0.0
2017-Sep-11 16:00N 44°34' E 037°56'0 0.0
2017-Sep-11 15:30N 44°34' E 037°56'0 0.0
2017-Sep-11 15:00N 44°34' E 037°56'0 0.0
2017-Sep-11 14:30N 44°34' E 037°56'0 0.0
2017-Sep-11 14:00N 44°34' E 037°56'  

Dump ship's entire track history